Terminal Aerodrome Forecast
Issued by NWS

Home | Current Version | Previous Version | Graphics & Text | Print | Product List | Glossary On
Versions: 1 2 3 4 5 6 7 8 9 10 11 12 13 14 15 16 17 18
000
FTUS43 KABR 142300
TAFPIR
TAF
KPIR 142320Z 1500/1524 36009KT P6SM BKN060
     FM150300 VRB06KT P6SM SKC
     FM151400 15015KT P6SM SCT150=

USA.gov is the U.S. government's official web portal to all federal, state and local government web resources and services.